Time;durP1;ratioP1;P1;durP2;ratioP2;P2;SDS_P1;SDS_P2;PMS_P1;PMS_P2;Temp;Humidity;BMP_temperature;BMP_pressure;BME280_temperature;BME280_humidity;BME280_pressure;Samples;Min_cycle;Max_cycle;Signal;HPM_P1;HPM_P2
2023/10/26 00:00:31;;;;;;;9.18;5.13;;;12.20;99.90;;;;;;4971930;28;20157;-18
2023/10/26 00:02:57;;;;;;;8.10;4.83;;;11.70;99.90;;;;;;4972011;28;20053;-18
2023/10/26 00:05:24;;;;;;;8.38;4.97;;;12.20;99.90;;;;;;4963054;28;20030;-18
2023/10/26 00:07:50;;;;;;;8.70;4.78;;;12.30;99.90;;;;;;4965123;28;20038;-18
2023/10/26 00:10:17;;;;;;;8.35;5.20;;;12.30;99.90;;;;;;4975789;28;20026;-17
2023/10/26 00:12:43;;;;;;;8.98;5.13;;;12.30;99.90;;;;;;4974634;28;20023;-16
2023/10/26 00:15:09;;;;;;;9.33;5.43;;;12.40;99.90;;;;;;4955648;28;20030;-16
2023/10/26 00:17:36;;;;;;;8.38;5.15;;;12.40;99.90;;;;;;4970531;28;20038;-16
2023/10/26 00:20:02;;;;;;;7.57;4.55;;;12.40;99.90;;;;;;4960435;28;20030;-17
2023/10/26 00:22:29;;;;;;;8.38;5.07;;;12.40;99.90;;;;;;4968038;28;20030;-16
2023/10/26 00:24:55;;;;;;;9.17;5.33;;;12.50;99.90;;;;;;4934023;28;20038;-17
2023/10/26 00:27:20;;;;;;;8.82;5.45;;;12.40;99.90;;;;;;4979472;28;20097;-17
2023/10/26 00:29:47;;;;;;;8.90;5.28;;;12.40;99.90;;;;;;4961903;28;20061;-17
2023/10/26 00:32:13;;;;;;;7.30;4.27;;;12.40;99.90;;;;;;4958483;28;20030;-17
2023/10/26 00:34:38;;;;;;;7.18;4.50;;;12.40;99.90;;;;;;4965448;28;20255;-16
2023/10/26 00:37:04;;;;;;;6.40;4.00;;;12.40;99.90;;;;;;4962248;28;20026;-17
2023/10/26 00:39:30;;;;;;;8.83;4.77;;;12.30;99.90;;;;;;4933813;28;20280;-16
2023/10/26 00:41:56;;;;;;;9.10;5.05;;;12.30;99.90;;;;;;4970650;28;20037;-16
2023/10/26 00:44:22;;;;;;;8.93;4.40;;;12.30;99.90;;;;;;4958749;28;20165;-17
2023/10/26 00:46:50;;;;;;;8.77;4.75;;;12.20;99.90;;;;;;4961709;28;20050;-16
2023/10/26 00:49:18;;;;;;;7.63;4.47;;;12.20;99.90;;;;;;4965995;28;20122;-17
2023/10/26 00:51:55;;;;;;;8.55;4.95;;;12.10;99.90;;;;;;4960297;28;20030;-16
2023/10/26 00:54:21;;;;;;;7.50;4.38;;;12.10;99.90;;;;;;4933568;28;20065;-17
2023/10/26 00:56:49;;;;;;;7.63;4.33;;;11.90;99.90;;;;;;4950627;28;20018;-16
2023/10/26 00:59:17;;;;;;;7.78;4.50;;;11.90;99.90;;;;;;4961853;28;20074;-17
2023/10/26 01:01:45;;;;;;;7.97;4.53;;;11.90;99.90;;;;;;4977778;28;20093;-16
2023/10/26 01:04:14;;;;;;;7.03;3.92;;;11.80;99.90;;;;;;4958548;28;20030;-17
2023/10/26 01:06:41;;;;;;;7.53;4.28;;;11.80;99.90;;;;;;4970039;28;20172;-16
2023/10/26 01:09:08;;;;;;;6.53;3.87;;;10.50;99.90;;;;;;4956637;28;20031;-17
2023/10/26 01:11:38;;;;;;;10.02;4.97;;;11.60;99.90;;;;;;4946419;28;20493;-18
2023/10/26 01:14:05;;;;;;;7.63;4.30;;;11.60;99.90;;;;;;4985707;28;20034;-18
2023/10/26 01:16:31;;;;;;;8.07;4.57;;;11.60;99.90;;;;;;4951913;28;20625;-17
2023/10/26 01:19:03;;;;;;;9.05;4.90;;;11.50;99.90;;;;;;4976276;28;20289;-17
2023/10/26 01:21:30;;;;;;;8.20;4.70;;;11.50;99.90;;;;;;4966207;28;20189;-17
2023/10/26 01:23:56;;;;;;;7.45;4.45;;;11.40;99.90;;;;;;4976939;28;20022;-17
2023/10/26 01:26:23;;;;;;;9.10;5.00;;;11.40;99.90;;;;;;4929267;28;21540;-17
2023/10/26 01:28:48;;;;;;;9.80;5.45;;;11.40;99.90;;;;;;4976564;28;20116;-17
2023/10/26 01:31:17;;;;;;;9.20;5.60;;;11.40;99.90;;;;;;4959707;28;20038;-17
2023/10/26 01:33:44;;;;;;;8.37;4.87;;;11.30;99.90;;;;;;4969717;28;20034;-17
2023/10/26 01:36:10;;;;;;;8.52;4.93;;;11.30;99.90;;;;;;4970471;28;20022;-17
2023/10/26 01:38:36;;;;;;;7.72;4.65;;;11.30;99.90;;;;;;4956330;28;20683;-17
2023/10/26 01:41:02;;;;;;;8.10;4.63;;;9.90;99.90;;;;;;4962453;28;20031;-17
2023/10/26 01:43:29;;;;;;;8.18;4.60;;;11.20;99.90;;;;;;4958078;28;20026;-17
2023/10/26 01:45:54;;;;;;;6.27;4.00;;;11.20;99.90;;;;;;4966031;28;20665;-17
2023/10/26 01:48:22;;;;;;;7.30;4.43;;;11.20;99.90;;;;;;4947714;28;20038;-17
2023/10/26 01:50:48;;;;;;;7.63;4.60;;;11.10;99.90;;;;;;4969673;28;20467;-17
2023/10/26 01:53:13;;;;;;;8.07;4.17;;;11.10;99.90;;;;;;4967408;28;20037;-17
2023/10/26 01:55:40;;;;;;;6.72;3.85;;;11.10;99.90;;;;;;4945728;28;20517;-17
2023/10/26 01:58:06;;;;;;;7.90;4.17;;;11.10;99.90;;;;;;4958117;28;20030;-18
2023/10/26 02:00:32;;;;;;;8.23;4.60;;;11.00;99.90;;;;;;4969276;28;20247;-18
2023/10/26 02:02:58;;;;;;;9.15;4.32;;;11.00;99.90;;;;;;4961162;28;20039;-18
2023/10/26 02:05:24;;;;;;;6.27;3.53;;;11.00;99.90;;;;;;4969492;28;20247;-18
2023/10/26 02:07:50;;;;;;;8.23;4.28;;;11.00;99.90;;;;;;4975014;28;20029;-18
2023/10/26 02:10:18;;;;;;;7.40;4.45;;;11.00;99.90;;;;;;4929635;28;20109;-17
2023/10/26 02:12:44;;;;;;;7.03;4.40;;;10.90;99.90;;;;;;4966981;28;20026;-17
2023/10/26 02:15:11;;;;;;;6.43;3.97;;;10.90;99.90;;;;;;4956067;28;20042;-17
2023/10/26 02:17:37;;;;;;;13.88;4.47;;;10.90;99.90;;;;;;4963134;28;21071;-17
2023/10/26 02:20:03;;;;;;;7.90;4.05;;;10.90;99.90;;;;;;4967085;28;20486;-17
2023/10/26 02:22:29;;;;;;;7.47;4.33;;;10.90;99.90;;;;;;4966174;28;20308;-16
2023/10/26 02:24:55;;;;;;;6.25;3.90;;;10.80;99.90;;;;;;4968855;28;20034;-16
2023/10/26 02:27:21;;;;;;;6.57;3.53;;;10.90;99.90;;;;;;4930868;28;20503;-16
2023/10/26 02:29:46;;;;;;;7.03;3.88;;;10.80;99.90;;;;;;4984078;28;20042;-16
2023/10/26 02:32:12;;;;;;;7.22;4.30;;;10.80;99.90;;;;;;4960870;28;20058;-17
2023/10/26 02:34:38;;;;;;;7.90;4.73;;;10.80;99.90;;;;;;4976198;28;20648;-16
2023/10/26 02:37:04;;;;;;;7.05;4.13;;;10.80;99.90;;;;;;4965895;28;20027;-17
2023/10/26 02:39:30;;;;;;;6.80;3.90;;;10.80;99.90;;;;;;4959159;28;20155;-16
2023/10/26 02:41:55;;;;;;;8.15;4.53;;;10.80;99.90;;;;;;4963528;28;20417;-16
2023/10/26 02:44:21;;;;;;;9.07;5.13;;;10.80;99.90;;;;;;4941778;28;20564;-16
2023/10/26 02:46:47;;;;;;;7.60;4.25;;;10.70;99.90;;;;;;4969692;28;20027;-16
2023/10/26 02:49:13;;;;;;;7.78;4.38;;;10.70;99.90;;;;;;4958727;28;20041;-17
2023/10/26 02:51:40;;;;;;;6.60;3.93;;;10.70;99.90;;;;;;4967533;28;20542;-16
2023/10/26 02:54:05;;;;;;;7.45;4.00;;;10.70;99.90;;;;;;4965913;28;20022;-17
2023/10/26 02:56:31;;;;;;;7.53;4.13;;;10.70;99.90;;;;;;4961288;28;20772;-16
2023/10/26 02:58:57;;;;;;;8.23;4.60;;;10.70;99.90;;;;;;4945551;28;20050;-16
2023/10/26 03:01:23;;;;;;;8.38;4.63;;;10.60;99.90;;;;;;4964535;28;20030;-16
2023/10/26 03:03:49;;;;;;;6.73;4.00;;;12.20;99.90;;;;;;4967599;28;20061;-16
2023/10/26 03:06:15;;;;;;;6.88;4.10;;;10.60;99.90;;;;;;4957515;28;20526;-17
2023/10/26 03:08:40;;;;;;;6.97;3.70;;;10.60;99.90;;;;;;4966973;28;20035;-17
2023/10/26 03:11:06;;;;;;;6.90;3.93;;;10.50;99.90;;;;;;4966876;28;20088;-17
2023/10/26 03:13:32;;;;;;;7.95;4.00;;;10.50;99.90;;;;;;4952723;28;20389;-16
2023/10/26 03:15:57;;;;;;;7.40;4.00;;;10.50;99.90;;;;;;4974610;28;20022;-16
2023/10/26 03:18:23;;;;;;;9.05;4.55;;;10.50;99.90;;;;;;4973073;28;20117;-16
2023/10/26 03:20:49;;;;;;;8.77;4.33;;;10.50;99.90;;;;;;4979950;28;20110;-16
2023/10/26 03:23:15;;;;;;;7.97;4.22;;;10.50;99.90;;;;;;4972844;28;20038;-17
2023/10/26 03:25:41;;;;;;;6.80;3.93;;;10.40;99.90;;;;;;4979817;28;20035;-16
2023/10/26 03:28:06;;;;;;;6.28;3.95;;;10.40;99.90;;;;;;4968159;28;20022;-17
2023/10/26 03:30:32;;;;;;;7.40;4.07;;;10.50;99.90;;;;;;4955599;28;20026;-18
2023/10/26 03:32:58;;;;;;;9.30;4.20;;;10.40;99.90;;;;;;4973776;28;20085;-18
2023/10/26 03:35:24;;;;;;;7.65;4.40;;;10.40;99.90;;;;;;4976209;28;20266;-18
2023/10/26 03:37:50;;;;;;;9.27;4.87;;;10.40;99.90;;;;;;4976029;28;20034;-18
2023/10/26 03:40:16;;;;;;;7.10;4.13;;;9.70;99.90;;;;;;4970521;28;20035;-17
2023/10/26 03:42:42;;;;;;;7.20;4.10;;;10.30;99.90;;;;;;4973306;28;20036;-16
2023/10/26 03:45:08;;;;;;;7.13;3.90;;;10.40;99.90;;;;;;4962230;28;20034;-17
2023/10/26 03:47:34;;;;;;;7.30;4.00;;;10.40;99.90;;;;;;4976427;28;20034;-16
2023/10/26 03:49:59;;;;;;;6.70;3.92;;;10.40;99.90;;;;;;4971815;28;20031;-16
2023/10/26 03:52:26;;;;;;;8.97;5.00;;;10.40;99.90;;;;;;4963121;28;20259;-16
2023/10/26 03:54:52;;;;;;;6.65;4.00;;;10.40;99.90;;;;;;4969773;28;20041;-16
2023/10/26 03:57:17;;;;;;;8.20;4.37;;;10.40;99.90;;;;;;4976385;28;20026;-17
2023/10/26 03:59:43;;;;;;;8.18;4.38;;;10.50;99.90;;;;;;4988266;28;20034;-16
2023/10/26 04:02:10;;;;;;;7.00;4.45;;;10.50;99.90;;;;;;4944963;28;20404;-17
2023/10/26 04:04:36;;;;;;;7.72;4.20;;;10.50;99.90;;;;;;4971633;28;20219;-16
2023/10/26 04:07:02;;;;;;;7.57;4.30;;;10.50;99.90;;;;;;4959415;28;20320;-17
2023/10/26 04:09:28;;;;;;;10.15;4.57;;;10.50;99.90;;;;;;4960172;28;20105;-16
2023/10/26 04:11:54;;;;;;;9.27;4.60;;;9.60;99.90;;;;;;4963248;28;20034;-17
2023/10/26 04:14:20;;;;;;;8.68;4.50;;;10.50;99.90;;;;;;4973216;28;20030;-17
2023/10/26 04:16:47;;;;;;;7.18;3.95;;;10.60;99.90;;;;;;4961839;28;20042;-16
2023/10/26 04:19:14;;;;;;;6.90;4.27;;;10.60;99.90;;;;;;4967261;28;20488;-17
2023/10/26 04:21:40;;;;;;;9.15;4.47;;;10.50;99.90;;;;;;4974726;28;20026;-16
2023/10/26 04:24:06;;;;;;;9.40;4.72;;;10.60;99.90;;;;;;4962482;28;20563;-16
2023/10/26 04:26:32;;;;;;;7.55;4.22;;;10.60;99.90;;;;;;4955858;28;20347;-16
2023/10/26 04:28:58;;;;;;;7.83;4.10;;;10.50;99.90;;;;;;4969984;28;20531;-16
2023/10/26 04:31:25;;;;;;;8.07;4.20;;;10.50;99.90;;;;;;4968967;28;20030;-16
2023/10/26 04:33:51;;;;;;;9.30;4.63;;;9.00;99.90;;;;;;4931476;28;20054;-16
2023/10/26 04:36:19;;;;;;;7.63;4.13;;;10.50;99.90;;;;;;4971142;28;20035;-16
2023/10/26 04:38:44;;;;;;;8.13;4.10;;;10.50;99.90;;;;;;4956877;28;20581;-16
2023/10/26 04:41:11;;;;;;;8.27;4.07;;;10.50;99.90;;;;;;4969090;28;20050;-16
2023/10/26 04:43:37;;;;;;;6.95;4.03;;;10.40;99.90;;;;;;4983814;28;20030;-17
2023/10/26 04:46:02;;;;;;;7.43;3.73;;;10.40;99.90;;;;;;4967894;28;20022;-16
2023/10/26 04:48:29;;;;;;;8.73;3.85;;;10.30;99.90;;;;;;4941507;28;20037;-16
2023/10/26 04:50:55;;;;;;;8.27;4.45;;;10.30;99.90;;;;;;4972888;28;20393;-17
2023/10/26 04:53:21;;;;;;;6.97;3.78;;;9.60;99.90;;;;;;4962641;28;20037;-18
2023/10/26 04:55:47;;;;;;;9.13;4.33;;;10.30;99.90;;;;;;4965848;28;20500;-18
2023/10/26 04:58:13;;;;;;;7.47;4.03;;;10.10;99.90;;;;;;4959806;28;20272;-18
2023/10/26 05:00:39;;;;;;;8.27;4.22;;;10.30;99.90;;;;;;4965611;28;20030;-16
2023/10/26 05:03:06;;;;;;;10.03;5.07;;;10.30;99.90;;;;;;4924258;28;20527;-17
2023/10/26 05:05:32;;;;;;;9.30;4.80;;;10.20;99.90;;;;;;4949776;28;20037;-16
2023/10/26 05:07:57;;;;;;;8.20;4.33;;;10.20;99.90;;;;;;4969421;28;20660;-16
2023/10/26 05:10:23;;;;;;;7.03;3.88;;;10.20;99.90;;;;;;4970467;28;20105;-16
2023/10/26 05:12:49;;;;;;;8.40;4.30;;;10.20;99.90;;;;;;4970362;28;20030;-16
2023/10/26 05:15:15;;;;;;;8.85;4.25;;;10.10;99.90;;;;;;4965546;28;20563;-17
2023/10/26 05:17:40;;;;;;;8.87;4.70;;;10.10;99.90;;;;;;4958039;28;21520;-16
2023/10/26 05:20:07;;;;;;;7.93;4.00;;;10.10;99.90;;;;;;4947273;28;20516;-16
2023/10/26 05:22:33;;;;;;;8.40;4.32;;;12.30;99.90;;;;;;4968142;28;20314;-16
2023/10/26 05:25:04;;;;;;;7.53;4.00;;;10.10;99.90;;;;;;4972498;28;20461;-16
2023/10/26 05:27:33;;;;;;;10.77;4.45;;;10.10;99.90;;;;;;4957687;28;20051;-16
2023/10/26 05:29:59;;;;;;;8.82;4.50;;;10.00;99.90;;;;;;4971783;28;20492;-16
2023/10/26 05:32:26;;;;;;;8.63;4.33;;;10.00;99.90;;;;;;4959274;28;20604;-16
2023/10/26 05:34:52;;;;;;;8.65;4.60;;;10.00;99.90;;;;;;4916194;28;20034;-17
2023/10/26 05:37:19;;;;;;;10.15;5.00;;;10.00;99.90;;;;;;4952430;28;20113;-16
2023/10/26 05:39:45;;;;;;;9.18;4.53;;;10.00;99.90;;;;;;4948985;28;20427;-16
2023/10/26 05:42:10;;;;;;;9.20;4.37;;;10.00;99.90;;;;;;4948021;28;20118;-17
2023/10/26 05:44:39;;;;;;;9.10;4.22;;;10.00;99.90;;;;;;4981274;28;20109;-16
2023/10/26 05:47:05;;;;;;;8.43;3.95;;;9.90;99.90;;;;;;4968834;28;20122;-17
2023/10/26 05:49:30;;;;;;;9.60;4.60;;;9.90;99.90;;;;;;4958750;28;20034;-16
2023/10/26 05:52:00;;;;;;;10.05;4.65;;;9.90;99.90;;;;;;4946799;28;20061;-16
2023/10/26 05:54:26;;;;;;;10.07;4.63;;;9.90;99.90;;;;;;4965125;28;20117;-16
2023/10/26 05:56:52;;;;;;;9.83;5.00;;;9.90;99.90;;;;;;4968777;28;20597;-16
2023/10/26 05:59:17;;;;;;;10.07;4.85;;;9.80;99.90;;;;;;4959220;28;20760;-16
2023/10/26 06:01:43;;;;;;;7.27;4.10;;;9.90;99.90;;;;;;4967187;28;20523;-18
2023/10/26 06:04:09;;;;;;;9.48;4.28;;;9.80;99.90;;;;;;4958041;28;20113;-18
2023/10/26 06:06:34;;;;;;;8.17;4.03;;;9.80;99.90;;;;;;4956435;28;20022;-18
2023/10/26 06:09:00;;;;;;;10.23;4.30;;;9.80;99.90;;;;;;4971392;28;20076;-18
2023/10/26 06:11:26;;;;;;;8.80;4.33;;;9.80;99.90;;;;;;4955170;28;20027;-18
2023/10/26 06:13:52;;;;;;;8.27;4.05;;;9.80;99.90;;;;;;4940655;28;20543;-17
2023/10/26 06:16:18;;;;;;;10.27;4.13;;;9.80;99.90;;;;;;4964829;28;20030;-18
2023/10/26 06:18:43;;;;;;;8.90;3.92;;;9.80;99.90;;;;;;4966748;28;20981;-18
2023/10/26 06:21:09;;;;;;;9.05;4.15;;;9.80;99.90;;;;;;4968639;28;20038;-16
2023/10/26 06:23:35;;;;;;;7.63;3.83;;;9.80;99.90;;;;;;4943280;28;20049;-17
2023/10/26 06:26:03;;;;;;;7.60;3.50;;;9.80;99.90;;;;;;4977749;28;20057;-16
2023/10/26 06:28:29;;;;;;;6.78;3.53;;;9.90;99.90;;;;;;4961983;28;20030;-17
2023/10/26 06:31:06;;;;;;;6.97;3.65;;;9.80;99.90;;;;;;4952487;28;20041;-17
2023/10/26 06:33:32;;;;;;;6.37;3.70;;;9.80;99.90;;;;;;4967949;28;20030;-17
2023/10/26 06:35:59;;;;;;;6.93;3.60;;;9.90;99.90;;;;;;4960402;28;20027;-18
2023/10/26 06:38:24;;;;;;;7.90;3.80;;;9.90;99.90;;;;;;4931170;28;20378;-17
2023/10/26 06:40:50;;;;;;;6.70;3.50;;;9.80;99.90;;;;;;4965477;28;20213;-17
2023/10/26 06:43:16;;;;;;;6.82;3.67;;;9.90;99.90;;;;;;4954069;28;20038;-17
2023/10/26 06:45:41;;;;;;;9.47;4.10;;;9.90;99.90;;;;;;4941831;28;20148;-17
2023/10/26 06:48:08;;;;;;;6.38;3.50;;;9.90;99.90;;;;;;4948014;28;20037;-18
2023/10/26 06:50:33;;;;;;;6.00;3.13;;;9.90;99.90;;;;;;4978458;28;20023;-17
2023/10/26 06:52:59;;;;;;;8.03;4.10;;;9.90;99.90;;;;;;4949379;28;20019;-17
2023/10/26 06:55:25;;;;;;;9.33;4.10;;;9.90;99.90;;;;;;4971579;28;20031;-17
2023/10/26 06:57:50;;;;;;;6.80;3.57;;;9.90;99.90;;;;;;4980375;28;20372;-17
2023/10/26 07:00:17;;;;;;;8.23;3.67;;;9.90;99.90;;;;;;4968028;28;20049;-17
2023/10/26 07:02:43;;;;;;;7.10;3.63;;;9.90;99.90;;;;;;4965680;28;20637;-17
2023/10/26 07:05:08;;;;;;;8.50;4.15;;;9.90;99.90;;;;;;4956268;28;20053;-17
2023/10/26 07:07:36;;;;;;;7.55;3.70;;;10.00;99.90;;;;;;4929924;28;20031;-17
2023/10/26 07:10:02;;;;;;;7.60;3.97;;;10.00;99.90;;;;;;4958981;28;20164;-17
2023/10/26 07:12:29;;;;;;;7.68;3.88;;;10.00;99.90;;;;;;4960485;28;20109;-17
2023/10/26 07:14:54;;;;;;;8.35;3.90;;;10.10;99.90;;;;;;4972013;28;20113;-16
2023/10/26 07:17:21;;;;;;;9.48;3.92;;;10.20;99.90;;;;;;4967454;28;20362;-16
2023/10/26 07:19:47;;;;;;;19.17;4.40;;;10.20;99.90;;;;;;4951076;28;20030;-17
2023/10/26 07:22:13;;;;;;;7.60;3.60;;;10.30;99.90;;;;;;4959398;28;20660;-16
2023/10/26 07:24:38;;;;;;;7.03;3.65;;;10.40;99.90;;;;;;4928101;28;20031;-16
2023/10/26 07:27:04;;;;;;;9.53;4.20;;;10.50;99.90;;;;;;4970934;28;20135;-16
2023/10/26 07:29:30;;;;;;;8.18;3.92;;;10.50;99.90;;;;;;4955631;28;20077;-16
2023/10/26 07:31:56;;;;;;;8.13;4.33;;;10.50;99.90;;;;;;4966942;28;20571;-16
2023/10/26 07:34:22;;;;;;;8.88;4.38;;;10.60;99.90;;;;;;4963917;28;20102;-16
2023/10/26 07:36:48;;;;;;;10.40;4.20;;;10.70;99.90;;;;;;4965083;28;20034;-17
2023/10/26 07:39:14;;;;;;;8.53;3.80;;;10.70;99.90;;;;;;4939065;28;20076;-16
2023/10/26 07:41:40;;;;;;;7.15;3.78;;;10.80;99.90;;;;;;4965499;28;20074;-18
2023/10/26 07:44:06;;;;;;;9.80;4.75;;;10.90;99.90;;;;;;4949570;28;20888;-18
2023/10/26 07:46:32;;;;;;;7.82;3.70;;;10.90;99.90;;;;;;4974283;28;20535;-18
2023/10/26 07:48:58;;;;;;;7.70;4.03;;;11.00;99.90;;;;;;4958040;28;20022;-18
2023/10/26 07:51:23;;;;;;;8.63;4.63;;;11.20;99.90;;;;;;4943529;28;20807;-18
2023/10/26 07:53:49;;;;;;;8.33;4.40;;;11.10;99.90;;;;;;4960508;28;20073;-18
2023/10/26 07:56:15;;;;;;;7.78;3.90;;;11.20;99.90;;;;;;4954241;28;20185;-18
2023/10/26 07:58:40;;;;;;;10.30;4.20;;;11.30;99.90;;;;;;4974069;28;20465;-18
2023/10/26 08:01:09;;;;;;;10.13;4.57;;;11.30;99.90;;;;;;4963897;28;20272;-18
2023/10/26 08:03:36;;;;;;;8.25;4.03;;;11.40;99.90;;;;;;4988905;28;20182;-18
2023/10/26 08:06:02;;;;;;;10.03;4.60;;;11.50;99.90;;;;;;4937361;28;20385;-18
2023/10/26 08:08:29;;;;;;;9.15;4.65;;;11.60;99.90;;;;;;4960303;28;20492;-18
2023/10/26 08:10:56;;;;;;;8.98;4.32;;;11.70;99.90;;;;;;4947972;28;20118;-18
2023/10/26 08:13:22;;;;;;;8.20;4.15;;;11.80;99.90;;;;;;4969940;28;20065;-18
2023/10/26 08:15:48;;;;;;;8.48;4.55;;;11.80;99.90;;;;;;4968083;28;20031;-18
2023/10/26 08:18:14;;;;;;;8.70;4.27;;;11.80;99.90;;;;;;4972435;28;20046;-18
2023/10/26 08:20:40;;;;;;;9.82;4.80;;;11.90;99.90;;;;;;4966316;28;20113;-18
2023/10/26 08:23:06;;;;;;;8.55;4.18;;;12.00;99.90;;;;;;4961419;28;20453;-18
2023/10/26 08:25:36;;;;;;;9.32;4.50;;;12.00;99.90;;;;;;4976352;28;20018;-18
2023/10/26 08:28:02;;;;;;;7.77;4.00;;;12.00;99.90;;;;;;4949073;28;20035;-18
2023/10/26 08:30:28;;;;;;;9.15;4.50;;;12.00;99.90;;;;;;4964842;28;20457;-18
2023/10/26 08:32:56;;;;;;;9.10;4.40;;;12.00;99.90;;;;;;4973671;28;20022;-18
2023/10/26 08:35:22;;;;;;;9.30;4.38;;;12.00;99.90;;;;;;4942434;28;20030;-18
2023/10/26 08:37:49;;;;;;;8.53;4.13;;;12.00;99.90;;;;;;4968614;28;21264;-18
2023/10/26 08:40:15;;;;;;;8.60;4.30;;;12.10;99.90;;;;;;4972939;28;20037;-18
2023/10/26 08:42:43;;;;;;;8.45;4.50;;;12.10;99.90;;;;;;4952836;28;20038;-18
2023/10/26 08:45:33;;;;;;;8.65;4.35;;;12.10;99.90;;;;;;4969357;28;20260;-18
2023/10/26 08:47:59;;;;;;;9.10;4.50;;;12.10;99.90;;;;;;4954242;28;20046;-18
2023/10/26 08:50:25;;;;;;;8.63;4.65;;;12.20;99.90;;;;;;4957460;28;20054;-18
2023/10/26 08:52:53;;;;;;;9.50;4.25;;;12.20;99.90;;;;;;4958691;28;20980;-18
2023/10/26 08:55:20;;;;;;;8.48;3.97;;;12.30;99.90;;;;;;4958830;28;20034;-18
2023/10/26 08:57:54;;;;;;;9.90;4.37;;;12.30;99.90;;;;;;4948241;28;20064;-18
2023/10/26 09:00:21;;;;;;;9.85;4.38;;;12.30;99.90;;;;;;4971418;28;20042;-18
2023/10/26 09:02:50;;;;;;;7.75;4.10;;;12.40;99.90;;;;;;4975894;28;20069;-18
2023/10/26 09:05:16;;;;;;;7.90;4.13;;;12.40;99.90;;;;;;4962412;28;20112;-18
2023/10/26 09:07:42;;;;;;;9.33;4.30;;;12.40;99.90;;;;;;4956428;28;20548;-18
2023/10/26 09:10:08;;;;;;;8.32;4.13;;;12.40;99.90;;;;;;4939336;28;20483;-18
2023/10/26 09:12:34;;;;;;;9.55;4.38;;;12.40;99.90;;;;;;4925480;28;20065;-18
2023/10/26 09:15:02;;;;;;;6.82;3.92;;;12.40;99.90;;;;;;4970960;28;20687;-18
2023/10/26 09:17:29;;;;;;;8.13;4.23;;;12.40;99.90;;;;;;4950248;28;20465;-18
2023/10/26 09:19:55;;;;;;;8.32;3.95;;;12.50;99.90;;;;;;4968830;28;20037;-18
2023/10/26 09:22:38;;;;;;;10.43;4.85;;;12.50;99.90;;;;;;4961336;28;20042;-18
2023/10/26 09:25:11;;;;;;;8.82;4.20;;;12.50;99.90;;;;;;4969233;28;20547;-18
2023/10/26 09:27:37;;;;;;;9.13;4.57;;;12.50;99.90;;;;;;4935741;28;20268;-18
2023/10/26 09:30:04;;;;;;;9.80;4.27;;;12.60;99.90;;;;;;4959299;28;20030;-18
2023/10/26 09:32:34;;;;;;;8.23;3.92;;;12.60;99.90;;;;;;4959538;28;20114;-18
2023/10/26 09:35:01;;;;;;;9.32;4.50;;;12.60;99.90;;;;;;4961822;28;20039;-18
2023/10/26 09:37:27;;;;;;;7.82;4.03;;;12.60;99.90;;;;;;4963540;28;20038;-18
2023/10/26 09:39:53;;;;;;;8.00;3.80;;;12.70;99.90;;;;;;4974756;28;20077;-18
2023/10/26 09:42:19;;;;;;;6.83;4.10;;;12.70;99.90;;;;;;4954032;28;20125;-18
2023/10/26 09:44:46;;;;;;;7.45;4.20;;;12.80;99.90;;;;;;4961576;28;20283;-18
2023/10/26 09:47:12;;;;;;;7.28;4.05;;;12.80;99.90;;;;;;4975111;28;20042;-19
2023/10/26 09:49:38;;;;;;;8.15;4.10;;;12.80;99.90;;;;;;4962654;28;20038;-19
2023/10/26 09:52:04;;;;;;;8.60;4.30;;;12.90;99.90;;;;;;4971812;28;20022;-19
2023/10/26 09:54:34;;;;;;;7.17;3.80;;;13.00;99.90;;;;;;4948264;28;20683;-19
2023/10/26 09:57:21;;;;;;;7.65;3.90;;;13.10;99.90;;;;;;4977100;28;20062;-19
2023/10/26 09:59:53;;;;;;;7.32;3.92;;;13.20;99.90;;;;;;4946615;28;20042;-19
2023/10/26 10:02:19;;;;;;;7.88;3.80;;;13.30;99.90;;;;;;4971031;28;20027;-19
2023/10/26 10:04:46;;;;;;;7.88;4.25;;;13.50;99.90;;;;;;4978809;28;20256;-19
2023/10/26 10:07:39;;;;;;;8.90;4.07;;;13.60;99.90;;;;;;4972323;28;20027;-19
2023/10/26 10:10:12;;;;;;;7.82;4.05;;;13.70;99.90;;;;;;4951692;28;20045;-19
2023/10/26 10:12:39;;;;;;;6.32;3.60;;;13.80;99.90;;;;;;4944867;28;20035;-19
2023/10/26 10:15:09;;;;;;;7.43;4.00;;;13.90;99.90;;;;;;4936703;28;20495;-19
2023/10/26 10:17:44;;;;;;;7.07;3.90;;;13.90;99.90;;;;;;4982466;28;20273;-19
2023/10/26 10:20:16;;;;;;;7.57;4.00;;;14.00;99.90;;;;;;4963696;28;20043;-19
2023/10/26 10:22:46;;;;;;;9.38;4.18;;;14.10;99.90;;;;;;4975436;28;20053;-18
2023/10/26 10:25:13;;;;;;;7.25;4.15;;;14.20;99.90;;;;;;4950295;28;20461;-17
2023/10/26 10:27:39;;;;;;;6.53;3.70;;;14.30;99.90;;;;;;4971830;28;20698;-18
2023/10/26 10:30:08;;;;;;;5.70;3.63;;;14.40;99.90;;;;;;4939426;28;20493;-18
2023/10/26 10:32:46;;;;;;;6.07;3.33;;;14.70;99.90;;;;;;4974737;28;20023;-20
2023/10/26 10:35:25;;;;;;;7.75;4.38;;;14.90;99.90;;;;;;4962606;28;20037;-20
2023/10/26 10:40:40;;;;;;;6.03;3.60;;;15.50;99.90;;;;;;4963978;28;20628;-20
2023/10/26 10:43:05;;;;;;;5.70;3.28;;;15.80;99.90;;;;;;4976860;28;20508;-20
2023/10/26 10:45:31;;;;;;;5.57;3.40;;;16.00;99.90;;;;;;4940334;28;20030;-20
2023/10/26 10:47:57;;;;;;;5.07;3.22;;;16.20;99.90;;;;;;4976550;28;20121;-20
2023/10/26 10:50:27;;;;;;;5.28;3.03;;;16.30;99.90;;;;;;4970045;28;20038;-20
2023/10/26 10:52:55;;;;;;;4.50;2.70;;;16.70;99.90;;;;;;4974305;28;20149;-20
2023/10/26 10:55:25;;;;;;;4.93;3.13;;;17.00;99.90;;;;;;4975023;28;20034;-20
2023/10/26 10:57:53;;;;;;;4.70;2.97;;;17.30;99.90;;;;;;4962608;28;20530;-20
2023/10/26 11:00:20;;;;;;;4.53;2.88;;;17.50;99.90;;;;;;4944545;28;20039;-21
2023/10/26 11:02:47;;;;;;;5.10;3.08;;;17.50;99.90;;;;;;4933471;28;20118;-21
2023/10/26 11:05:13;;;;;;;4.80;2.90;;;17.50;99.90;;;;;;4966049;28;20045;-21
2023/10/26 11:07:39;;;;;;;3.90;2.50;;;17.50;99.90;;;;;;4966546;28;20049;-21
2023/10/26 11:10:06;;;;;;;3.72;2.33;;;17.40;99.90;;;;;;4973512;28;20300;-21
2023/10/26 11:12:31;;;;;;;3.92;2.63;;;17.30;99.90;;;;;;4943939;28;20374;-21
2023/10/26 11:14:58;;;;;;;3.73;2.53;;;17.10;99.90;;;;;;4964875;28;20015;-21
2023/10/26 11:17:25;;;;;;;3.53;2.40;;;17.10;99.90;;;;;;4949829;28;20058;-21
2023/10/26 11:19:52;;;;;;;4.78;2.55;;;17.00;99.90;;;;;;4951665;28;20037;-21
2023/10/26 11:22:19;;;;;;;4.47;3.03;;;16.90;99.90;;;;;;4964385;28;20401;-20
2023/10/26 11:24:46;;;;;;;4.88;2.80;;;16.90;99.90;;;;;;4972414;28;20101;-20
2023/10/26 11:27:13;;;;;;;4.60;2.80;;;16.80;99.90;;;;;;4964972;28;20042;-19
2023/10/26 11:29:45;;;;;;;3.47;2.38;;;16.80;99.90;;;;;;4973061;28;20030;-20
2023/10/26 11:32:18;;;;;;;4.43;2.72;;;16.80;99.90;;;;;;4961889;28;20093;-20
2023/10/26 11:35:07;;;;;;;3.93;2.80;;;16.80;99.90;;;;;;4957511;28;20930;-21
2023/10/26 11:37:35;;;;;;;4.22;2.42;;;16.80;99.90;;;;;;4956729;28;20030;-21
2023/10/26 11:40:01;;;;;;;4.05;2.35;;;16.70;99.90;;;;;;4967314;28;20227;-21
2023/10/26 11:42:53;;;;;;;4.13;2.55;;;16.60;99.90;;;;;;4973814;28;20498;-22
2023/10/26 11:45:25;;;;;;;4.20;2.65;;;16.60;99.90;;;;;;4975190;28;20447;-22
2023/10/26 11:47:55;;;;;;;4.83;3.00;;;17.30;99.90;;;;;;4962731;28;20594;-22
2023/10/26 11:50:38;;;;;;;4.25;2.78;;;16.40;99.90;;;;;;4978760;28;20033;-22
2023/10/26 11:53:05;;;;;;;3.83;2.63;;;16.30;99.90;;;;;;4974334;28;20893;-22
2023/10/26 11:55:33;;;;;;;4.20;2.50;;;16.30;99.90;;;;;;4961360;28;20497;-22
2023/10/26 11:58:02;;;;;;;3.90;2.42;;;16.20;99.90;;;;;;4968511;28;20058;-22
2023/10/26 12:00:29;;;;;;;4.70;2.60;;;16.10;99.90;;;;;;4977836;28;20042;-21
2023/10/26 12:02:57;;;;;;;4.03;2.47;;;16.00;99.90;;;;;;4932932;28;20705;-21
2023/10/26 12:05:23;;;;;;;4.53;2.70;;;16.00;99.90;;;;;;4989738;28;20027;-20
2023/10/26 12:07:50;;;;;;;4.70;2.80;;;15.90;99.90;;;;;;4967146;28;20066;-20
2023/10/26 12:10:18;;;;;;;3.90;2.60;;;15.80;99.90;;;;;;4983248;28;20811;-19
2023/10/26 12:12:45;;;;;;;5.03;2.67;;;15.80;99.90;;;;;;4978360;28;20117;-19
2023/10/26 12:15:11;;;;;;;3.97;2.33;;;15.70;99.90;;;;;;4965916;28;20026;-18
2023/10/26 12:17:37;;;;;;;4.05;2.75;;;15.60;99.90;;;;;;4968345;28;20081;-18
2023/10/26 12:20:04;;;;;;;4.43;2.88;;;15.60;99.90;;;;;;4958626;28;20922;-18
2023/10/26 12:22:30;;;;;;;4.20;2.57;;;15.50;99.90;;;;;;4970679;28;20180;-17
2023/10/26 12:24:56;;;;;;;4.30;2.80;;;15.50;99.90;;;;;;4961215;28;20404;-17
2023/10/26 12:27:22;;;;;;;4.60;2.90;;;15.50;99.90;;;;;;4967611;28;20034;-17
2023/10/26 12:29:48;;;;;;;4.00;2.53;;;15.40;99.90;;;;;;4963029;28;20479;-18
2023/10/26 12:32:14;;;;;;;3.80;2.30;;;15.40;99.90;;;;;;4982750;28;20034;-18
2023/10/26 12:34:41;;;;;;;4.68;2.67;;;15.40;99.90;;;;;;4944409;28;20074;-17
2023/10/26 12:37:06;;;;;;;5.38;2.85;;;15.30;99.90;;;;;;4960767;28;20309;-18
2023/10/26 12:39:33;;;;;;;4.85;3.03;;;15.30;99.90;;;;;;4973828;28;20580;-17
2023/10/26 12:41:59;;;;;;;4.50;2.67;;;15.20;99.90;;;;;;4960707;28;20197;-17
2023/10/26 12:44:26;;;;;;;4.80;2.90;;;15.30;99.90;;;;;;4971413;28;20113;-17
2023/10/26 12:46:53;;;;;;;4.55;2.78;;;15.30;99.90;;;;;;4956633;28;20841;-18
2023/10/26 12:49:21;;;;;;;5.38;3.35;;;15.30;99.90;;;;;;4976876;28;20510;-18